Date,TemperatureHighF,TemperatureAvgF,TemperatureLowF,DewpointHighF,DewpointAvgF,DewpointLowF,HumidityHigh,HumidityAvg,HumidityLow,PressureMaxIn,PressureMinIn,WindSpeedMaxMPH,WindSpeedAvgMPH,GustSpeedMaxMPH,PrecipitationSumIn
2013-10-1,79.3,63.0,51.8,60.5,54.1,50.7,97,76,40,30.08,29.95,10,1,10,0.00
2013-10-2,83.2,60.4,49.9,63.4,55.7,49.4,99,86,48,30.07,29.98,11,0,11,0.00
2013-10-3,80.2,65.4,54.1,62.8,58.5,53.5,99,81,53,30.16,30.02,7,0,7,0.00
2013-10-4,82.8,69.3,61.7,67.3,64.0,60.1,98,85,58,30.09,29.99,9,0,9,0.22
2013-10-5,81.5,70.4,64.7,69.2,66.3,64.4,99,88,63,30.11,29.99,5,0,5,0.02
2013-10-6,80.7,70.7,62.8,68.7,66.3,62.2,99,87,65,30.02,29.90,7,1,12,0.01
2013-10-7,72.3,63.5,50.7,66.8,57.0,42.8,94,80,54,30.04,29.69,14,1,14,1.01
2013-10-8,68.3,54.3,41.5,49.2,43.3,37.8,98,70,34,30.37,30.05,9,0,9,0.00
2013-10-9,65.4,51.4,40.3,47.7,42.5,38.0,98,75,39,30.44,30.32,8,0,8,0.00
2013-10-10,61.6,50.6,42.3,51.5,45.3,40.6,97,83,51,30.33,30.15,7,0,7,0.29
2013-10-11,67.3,57.8,50.5,56.0,51.1,44.8,95,79,51,30.15,30.06,8,0,8,0.62
2013-10-12,76.5,61.3,50.9,54.1,46.0,34.9,95,63,24,30.25,30.10,9,0,9,0.00
2013-10-13,67.8,60.1,53.2,52.5,50.0,43.3,87,70,50,30.35,30.25,7,0,7,0.00
2013-10-14,66.3,57.2,50.9,55.3,51.6,48.5,94,82,66,30.37,30.26,6,0,6,0.00
2013-10-15,72.6,59.3,48.2,56.8,52.0,47.6,99,79,50,30.28,30.09,10,0,10,0.00
2013-10-16,62.1,58.0,53.9,57.3,50.7,41.1,89,77,60,30.09,29.90,6,0,6,0.00
2013-10-17,70.8,62.2,55.7,60.3,55.5,51.0,96,80,53,29.93,29.64,10,1,11,0.63
2013-10-18,62.0,51.6,42.4,52.1,43.1,39.3,93,74,44,30.02,29.78,15,1,15,0.00
2013-10-19,55.4,46.3,35.7,50.6,43.4,35.2,98,90,68,30.02,29.75,15,0,15,0.06
2013-10-20,59.2,49.3,39.3,41.3,38.0,35.3,87,66,42,30.09,29.86,11,1,15,0.00
2013-10-21,65.2,48.6,33.2,43.3,38.5,32.4,97,72,38,30.17,29.94,13,1,13,0.00
2013-10-22,59.1,51.4,43.0,46.1,37.6,28.8,85,61,35,29.94,29.81,15,1,15,0.00
2013-10-23,48.2,41.8,36.4,37.3,34.4,29.9,89,75,55,29.87,29.73,7,0,7,0.00
2013-10-24,48.5,40.7,35.0,33.9,30.8,27.0,88,69,44,30.09,29.87,11,1,16,0.00
2013-10-25,51.7,42.0,34.2,36.6,31.9,28.0,87,68,49,30.27,30.09,13,1,13,0.00
2013-10-26,53.1,41.3,25.9,33.5,27.9,24.1,97,64,33,30.27,29.92,18,2,18,0.00
2013-10-27,51.8,45.3,33.5,35.5,32.2,28.6,83,61,43,30.16,29.92,13,1,13,0.00
2013-10-28,59.7,41.9,26.7,38.3,32.8,25.5,96,73,41,30.36,30.15,5,0,10,0.00
2013-10-29,53.7,42.9,33.9,36.8,33.4,30.6,89,70,47,30.47,30.35,7,0,7,0.00
2013-10-30,63.9,46.4,33.7,46.9,38.7,31.4,92,76,47,30.35,30.15,6,0,6,0.00
2013-10-31,59.6,54.7,46.7,58.8,53.0,42.1,98,94,83,30.21,29.69,7,0,7,0.28